Weather at Sideradougou Airport

Public forecast

Using degrees Celsius for public forecast. Weather courtesy of forecast.io.

Closest aviation weather report (METAR) to Sideradougou Airport

Closest report is Bobo Dioulasso Airport, 29.8 nm (55.3 km) N. Retrieved 2020/10/25 07:00 UTC (5 minutes ago):

DFOO 250700Z 00000KT CAVOK 23/18 Q1013

Closest aviation forecast (TAF) to Sideradougou Airport

Closest forecast is Bobo Dioulasso Airport, 29.8 nm (55.3 km) N. Retrieved 2020/10/25 06:21 UTC (44 minutes ago):

TAF DFOO 250500Z 2506/2606 VRB08KT 8000 NSC PROB30 TEMPO 2506/2510 3500 DU